Time;durP1;ratioP1;P1;durP2;ratioP2;P2;SDS_P1;SDS_P2;PMS_P1;PMS_P2;Temp;Humidity;BMP_temperature;BMP_pressure;BME280_temperature;BME280_humidity;BME280_pressure;Samples;Min_cycle;Max_cycle;Signal;HPM_P1;HPM_P2
2022/08/18 00:02:22;;;;;;;12.13;7.13;;;;;;;;;;5014977;28;20105;-72
2022/08/18 00:04:48;;;;;;;8.10;5.65;;;;;;;;;;5013137;28;20385;-72
2022/08/18 00:07:29;;;;;;;10.35;7.13;;;;;;;;;;5014038;28;20030;-72
2022/08/18 00:09:57;;;;;;;8.68;5.95;;;;;;;;;;5013316;28;20172;-72
2022/08/18 00:12:33;;;;;;;7.75;5.30;;;;;;;;;;5014465;28;20044;-72
2022/08/18 00:15:04;;;;;;;9.20;6.95;;;;;;;;;;5014992;28;20040;-72
2022/08/18 00:17:31;;;;;;;8.60;6.93;;;;;;;;;;4998194;28;20473;-72
2022/08/18 00:19:56;;;;;;;9.55;7.13;;;;;;;;;;5002316;28;20045;-72
2022/08/18 00:22:24;;;;;;;9.65;6.25;;;;;;;;;;5014721;28;20033;-72
2022/08/18 00:24:52;;;;;;;9.60;7.80;;;;;;;;;;5014737;28;20026;-73
2022/08/18 00:27:25;;;;;;;7.28;6.15;;;;;;;;;;5014334;28;20025;-72
2022/08/18 00:29:54;;;;;;;7.20;5.72;;;;;;;;;;5013433;28;20025;-72
2022/08/18 00:32:23;;;;;;;7.93;6.53;;;;;;;;;;5013099;28;20026;-73
2022/08/18 00:34:49;;;;;;;8.48;6.22;;;;;;;;;;5011101;28;20034;-72
2022/08/18 00:37:15;;;;;;;9.38;7.22;;;;;;;;;;5014578;28;20036;-73
2022/08/18 00:39:40;;;;;;;7.90;5.90;;;;;;;;;;5012227;28;20428;-72
2022/08/18 00:42:39;;;;;;;6.45;4.95;;;;;;;;;;5013810;28;20037;-72
2022/08/18 00:45:05;;;;;;;13.63;7.45;;;;;;;;;;4998256;28;20046;-72
2022/08/18 00:47:33;;;;;;;12.80;6.75;;;;;;;;;;5013622;28;20109;-72
2022/08/18 00:49:59;;;;;;;9.02;6.95;;;;;;;;;;5013094;28;20441;-73
2022/08/18 00:52:27;;;;;;;10.52;8.05;;;;;;;;;;5012182;28;20044;-73
2022/08/18 00:54:58;;;;;;;7.68;6.43;;;;;;;;;;5012318;28;20110;-72
2022/08/18 00:57:24;;;;;;;8.50;7.18;;;;;;;;;;4998397;28;20029;-73
2022/08/18 01:00:07;;;;;;;11.50;7.97;;;;;;;;;;5012831;28;20042;-72
2022/08/18 01:02:40;;;;;;;10.50;7.03;;;;;;;;;;5013124;28;20352;-73
2022/08/18 01:05:10;;;;;;;9.38;6.10;;;;;;;;;;5012826;28;20026;-72
2022/08/18 01:07:40;;;;;;;6.65;5.97;;;;;;;;;;5012292;28;20041;-72
2022/08/18 01:10:08;;;;;;;11.63;6.32;;;;;;;;;;5010084;28;20034;-72
2022/08/18 01:12:33;;;;;;;8.80;6.90;;;;;;;;;;4996566;28;20068;-73
2022/08/18 01:15:02;;;;;;;10.00;7.93;;;;;;;;;;5012741;28;20077;-72
2022/08/18 01:23:03;;;;;;;10.57;7.25;;;;;;;;;;5012649;28;20053;-73
2022/08/18 01:28:16;;;;;;;12.35;8.30;;;;;;;;;;5004810;28;20037;-72
2022/08/18 01:30:48;;;;;;;11.68;9.10;;;;;;;;;;5012732;28;20026;-72
2022/08/18 01:33:15;;;;;;;11.32;8.38;;;;;;;;;;5013879;28;20022;-72
2022/08/18 01:35:47;;;;;;;9.93;6.63;;;;;;;;;;5012225;28;20121;-72
2022/08/18 01:38:17;;;;;;;10.23;7.90;;;;;;;;;;5012115;28;20034;-72
2022/08/18 01:40:43;;;;;;;11.82;7.68;;;;;;;;;;5015702;28;20062;-73
2022/08/18 01:43:11;;;;;;;10.57;6.97;;;;;;;;;;5016476;28;20445;-73
2022/08/18 01:45:36;;;;;;;10.02;6.53;;;;;;;;;;5016189;28;20064;-73
2022/08/18 01:48:04;;;;;;;15.15;9.88;;;;;;;;;;5016648;28;20426;-72
2022/08/18 01:50:33;;;;;;;12.13;8.73;;;;;;;;;;5016506;28;20064;-72
2022/08/18 01:53:01;;;;;;;11.00;7.78;;;;;;;;;;5015965;28;20066;-73
2022/08/18 01:55:31;;;;;;;7.85;6.90;;;;;;;;;;5014739;28;20097;-72
2022/08/18 01:57:57;;;;;;;11.68;8.98;;;;;;;;;;5015721;28;20065;-72
2022/08/18 02:00:24;;;;;;;13.98;7.78;;;;;;;;;;5013390;28;20053;-73
2022/08/18 02:02:50;;;;;;;9.70;7.70;;;;;;;;;;5001088;28;20039;-72
2022/08/18 02:05:18;;;;;;;12.35;9.25;;;;;;;;;;5002285;28;20033;-72
2022/08/18 02:07:45;;;;;;;11.27;7.47;;;;;;;;;;5015878;28;20036;-73
2022/08/18 02:10:11;;;;;;;13.05;8.40;;;;;;;;;;5015326;28;20030;-72
2022/08/18 02:12:37;;;;;;;11.35;6.88;;;;;;;;;;5015758;28;20033;-72
2022/08/18 02:15:04;;;;;;;10.10;7.18;;;;;;;;;;5012517;28;20112;-72
2022/08/18 02:17:36;;;;;;;11.00;7.60;;;;;;;;;;5015719;28;20030;-72
2022/08/18 02:20:05;;;;;;;12.82;9.13;;;;;;;;;;5014433;28;20039;-72
2022/08/18 02:22:33;;;;;;;14.02;10.15;;;;;;;;;;5015797;28;20069;-72
2022/08/18 02:24:58;;;;;;;9.25;7.50;;;;;;;;;;5016347;28;20103;-73
2022/08/18 02:27:28;;;;;;;11.23;8.10;;;;;;;;;;5014651;28;20481;-73
2022/08/18 02:29:54;;;;;;;10.82;9.52;;;;;;;;;;5015335;28;20026;-72
2022/08/18 02:32:19;;;;;;;14.70;9.32;;;;;;;;;;5003409;28;20053;-72
2022/08/18 02:34:47;;;;;;;15.00;9.50;;;;;;;;;;5004709;28;20077;-73
2022/08/18 02:37:12;;;;;;;14.18;8.60;;;;;;;;;;5015038;28;20033;-72
2022/08/18 02:39:38;;;;;;;14.35;7.78;;;;;;;;;;5014007;28;20614;-72
2022/08/18 02:42:06;;;;;;;12.52;9.43;;;;;;;;;;5015056;28;20339;-72
2022/08/18 02:44:32;;;;;;;11.63;8.77;;;;;;;;;;5016024;28;20021;-72
2022/08/18 02:47:02;;;;;;;10.52;7.57;;;;;;;;;;5014870;28;20037;-72
2022/08/18 02:49:28;;;;;;;13.93;11.68;;;;;;;;;;5014541;28;20026;-72
2022/08/18 02:51:53;;;;;;;14.68;10.63;;;;;;;;;;5015210;28;20044;-72
2022/08/18 02:54:21;;;;;;;15.73;9.50;;;;;;;;;;5015923;28;20037;-73
2022/08/18 02:56:49;;;;;;;14.88;10.15;;;;;;;;;;5013546;28;20057;-73
2022/08/18 02:59:17;;;;;;;13.07;9.38;;;;;;;;;;4997846;28;20026;-73
2022/08/18 03:01:45;;;;;;;13.55;9.48;;;;;;;;;;5014576;28;20096;-72
2022/08/18 03:04:19;;;;;;;11.10;9.52;;;;;;;;;;5014713;28;20521;-72
2022/08/18 03:06:45;;;;;;;13.50;8.43;;;;;;;;;;5014924;28;20069;-72
2022/08/18 03:09:11;;;;;;;11.45;8.65;;;;;;;;;;5015274;28;20565;-72
2022/08/18 03:11:37;;;;;;;13.30;8.07;;;;;;;;;;5011715;28;20034;-73
2022/08/18 03:14:04;;;;;;;11.38;8.13;;;;;;;;;;5014210;28;20037;-72
2022/08/18 03:16:31;;;;;;;15.07;8.30;;;;;;;;;;5013014;28;20017;-73
2022/08/18 03:19:00;;;;;;;12.48;8.05;;;;;;;;;;4984344;28;20385;-72
2022/08/18 03:21:30;;;;;;;11.55;9.05;;;;;;;;;;5010567;28;20026;-73
2022/08/18 03:23:56;;;;;;;15.75;8.88;;;;;;;;;;4999550;28;20087;-73
2022/08/18 03:26:25;;;;;;;11.63;8.95;;;;;;;;;;5014891;28;20441;-75
2022/08/18 03:28:51;;;;;;;9.20;7.45;;;;;;;;;;5011943;28;20045;-73
2022/08/18 03:31:19;;;;;;;12.15;8.05;;;;;;;;;;5014726;28;20040;-72
2022/08/18 03:33:45;;;;;;;11.95;8.38;;;;;;;;;;5014124;28;20034;-73
2022/08/18 03:36:14;;;;;;;15.48;8.85;;;;;;;;;;5014157;28;20030;-73
2022/08/18 03:38:42;;;;;;;10.77;7.82;;;;;;;;;;5012993;28;20116;-73
2022/08/18 03:41:12;;;;;;;9.27;7.35;;;;;;;;;;5014741;28;20030;-74
2022/08/18 03:43:38;;;;;;;10.85;7.07;;;;;;;;;;5014145;28;20513;-74
2022/08/18 03:46:05;;;;;;;11.23;9.05;;;;;;;;;;5013307;28;20116;-73
2022/08/18 03:48:32;;;;;;;12.45;7.40;;;;;;;;;;5013616;28;20049;-73
2022/08/18 03:51:10;;;;;;;12.20;9.13;;;;;;;;;;5013251;28;20036;-73
2022/08/18 03:53:36;;;;;;;14.68;9.82;;;;;;;;;;5013660;28;20033;-73
2022/08/18 03:56:11;;;;;;;11.30;8.18;;;;;;;;;;5012127;28;20057;-73
2022/08/18 03:58:37;;;;;;;12.35;8.13;;;;;;;;;;5011311;28;20381;-74
2022/08/18 04:01:02;;;;;;;11.10;7.32;;;;;;;;;;5009114;28;20038;-73
2022/08/18 04:03:28;;;;;;;10.43;8.30;;;;;;;;;;5007173;28;20026;-73
2022/08/18 04:05:55;;;;;;;11.93;7.07;;;;;;;;;;5011662;28;20449;-73
2022/08/18 04:08:22;;;;;;;13.20;8.32;;;;;;;;;;5012861;28;20056;-73
2022/08/18 04:10:53;;;;;;;11.05;9.10;;;;;;;;;;5012886;28;20040;-72
2022/08/18 04:13:18;;;;;;;16.27;10.65;;;;;;;;;;5013803;28;20018;-72
2022/08/18 04:15:43;;;;;;;12.48;8.13;;;;;;;;;;5010746;28;20080;-73
2022/08/18 04:18:10;;;;;;;14.35;10.52;;;;;;;;;;5013503;28;20044;-73
2022/08/18 04:20:36;;;;;;;13.35;10.48;;;;;;;;;;5012704;28;20369;-73
2022/08/18 04:23:01;;;;;;;12.27;10.35;;;;;;;;;;5013407;28;20018;-72
2022/08/18 04:25:27;;;;;;;14.95;10.13;;;;;;;;;;5012243;28;20112;-75
2022/08/18 04:27:56;;;;;;;16.80;8.88;;;;;;;;;;5013549;28;20030;-72
2022/08/18 04:30:24;;;;;;;18.58;10.60;;;;;;;;;;5013608;28;20040;-73
2022/08/18 04:32:50;;;;;;;12.35;8.32;;;;;;;;;;5003320;28;20130;-73
2022/08/18 04:35:15;;;;;;;12.20;8.55;;;;;;;;;;5013375;28;20105;-72
2022/08/18 04:37:44;;;;;;;16.40;10.23;;;;;;;;;;5012228;28;20037;-73
2022/08/18 04:40:10;;;;;;;14.00;8.95;;;;;;;;;;5009111;28;20030;-73
2022/08/18 04:42:36;;;;;;;10.70;8.52;;;;;;;;;;5013683;28;20109;-73
2022/08/18 04:45:02;;;;;;;14.38;9.18;;;;;;;;;;5005825;28;20493;-73
2022/08/18 04:47:28;;;;;;;12.57;7.78;;;;;;;;;;5010720;28;20129;-73
2022/08/18 04:49:53;;;;;;;16.25;9.95;;;;;;;;;;5013390;28;20108;-74
2022/08/18 04:55:03;;;;;;;17.75;11.30;;;;;;;;;;5011563;28;20629;-73
2022/08/18 04:57:30;;;;;;;14.27;9.85;;;;;;;;;;5010494;28;20577;-74
2022/08/18 04:59:57;;;;;;;13.57;9.90;;;;;;;;;;5014395;28;20022;-74
2022/08/18 05:02:22;;;;;;;14.18;8.98;;;;;;;;;;5014518;28;20036;-73
2022/08/18 05:04:50;;;;;;;13.68;8.07;;;;;;;;;;5013148;28;20346;-73
2022/08/18 05:07:21;;;;;;;15.55;9.38;;;;;;;;;;5012478;28;20041;-73
2022/08/18 05:09:46;;;;;;;11.25;8.57;;;;;;;;;;5013098;28;20026;-73
2022/08/18 05:12:15;;;;;;;12.68;8.77;;;;;;;;;;5012631;28;20036;-73
2022/08/18 05:14:43;;;;;;;16.45;9.73;;;;;;;;;;5016927;28;20026;-73
2022/08/18 05:17:11;;;;;;;11.48;8.65;;;;;;;;;;5014775;28;20156;-74
2022/08/18 05:19:37;;;;;;;17.10;10.68;;;;;;;;;;5016395;28;20041;-73
2022/08/18 05:22:02;;;;;;;15.82;8.60;;;;;;;;;;5016929;28;20022;-74
2022/08/18 05:24:29;;;;;;;14.63;10.25;;;;;;;;;;5017570;28;20025;-74
2022/08/18 05:26:55;;;;;;;18.83;9.30;;;;;;;;;;5014529;28;20049;-73
2022/08/18 05:29:21;;;;;;;14.82;9.35;;;;;;;;;;5015776;28;20065;-73
2022/08/18 05:31:50;;;;;;;16.73;9.55;;;;;;;;;;5014031;28;20033;-73
2022/08/18 05:34:16;;;;;;;10.00;6.93;;;;;;;;;;5016476;28;20026;-73
2022/08/18 05:36:50;;;;;;;12.68;9.38;;;;;;;;;;5015720;28;20484;-73
2022/08/18 05:39:18;;;;;;;12.98;7.38;;;;;;;;;;5016350;28;20481;-75
2022/08/18 05:41:54;;;;;;;13.63;8.95;;;;;;;;;;5016343;28;20034;-73
2022/08/18 05:44:32;;;;;;;9.50;7.57;;;;;;;;;;4997673;28;20070;-73
2022/08/18 05:47:09;;;;;;;12.02;7.85;;;;;;;;;;5016343;28;20022;-83
2022/08/18 05:49:35;;;;;;;9.70;7.05;;;;;;;;;;5016909;28;20022;-84
2022/08/18 05:52:04;;;;;;;14.93;8.85;;;;;;;;;;5014911;28;21765;-85
2022/08/18 05:57:23;;;;;;;15.13;8.13;;;;;;;;;;5015970;28;20107;-86
2022/08/18 05:59:53;;;;;;;14.00;8.93;;;;;;;;;;5010750;28;20045;-83
2022/08/18 06:02:52;;;;;;;12.98;8.05;;;;;;;;;;5016379;28;20484;-85
2022/08/18 06:06:01;;;;;;;11.98;6.28;;;;;;;;;;5007335;28;20057;-89
2022/08/18 06:08:52;;;;;;;20.38;9.80;;;;;;;;;;4940386;29;20070;-88
2022/08/18 06:11:17;;;;;;;15.57;8.02;;;;;;;;;;4956685;29;20051;-87
2022/08/18 06:13:42;;;;;;;13.07;8.90;;;;;;;;;;4956136;29;20061;-87
2022/08/18 06:16:27;;;;;;;12.60;9.30;;;;;;;;;;4939204;29;20027;-84
2022/08/18 06:18:58;;;;;;;13.63;9.07;;;;;;;;;;4956027;29;20051;-85
2022/08/18 06:21:37;;;;;;;17.90;11.18;;;;;;;;;;4955148;29;20473;-85
2022/08/18 06:24:36;;;;;;;16.42;9.15;;;;;;;;;;4939713;28;20106;-86
2022/08/18 06:27:13;;;;;;;13.30;8.77;;;;;;;;;;4931982;29;20039;-85
2022/08/18 06:29:46;;;;;;;10.77;7.22;;;;;;;;;;4955453;29;20130;-85
2022/08/18 06:32:27;;;;;;;17.05;10.52;;;;;;;;;;4955287;29;20035;-87
2022/08/18 06:35:12;;;;;;;14.10;8.52;;;;;;;;;;4939312;29;20039;-86
2022/08/18 06:38:37;;;;;;;14.55;8.90;;;;;;;;;;4954445;29;20122;-82
2022/08/18 06:40:27;;;;;;;7.28;6.30;;;;;;;;;;5012357;28;20030;-82
2022/08/18 06:42:52;;;;;;;20.35;10.35;;;;;;;;;;5014231;28;20521;-84
2022/08/18 06:45:22;;;;;;;15.38;8.80;;;;;;;;;;5016061;28;20025;-82
2022/08/18 06:48:00;;;;;;;10.00;6.55;;;;;;;;;;5025913;28;20030;-79
2022/08/18 06:50:27;;;;;;;14.73;8.50;;;;;;;;;;5014474;28;20040;-83
2022/08/18 06:52:57;;;;;;;12.18;9.07;;;;;;;;;;5014704;28;20045;-82
2022/08/18 06:55:45;;;;;;;16.70;8.48;;;;;;;;;;5013915;28;20420;-82
2022/08/18 06:58:16;;;;;;;15.02;8.52;;;;;;;;;;5012631;28;20037;-81
2022/08/18 07:00:53;;;;;;;12.90;7.10;;;;;;;;;;5014789;28;20117;-87
2022/08/18 07:03:21;;;;;;;13.23;8.20;;;;;;;;;;5020742;28;20026;-84
2022/08/18 07:05:58;;;;;;;12.85;8.65;;;;;;;;;;5012893;28;20034;-84
2022/08/18 07:08:36;;;;;;;13.32;9.57;;;;;;;;;;5013164;28;20030;-83
2022/08/18 07:11:20;;;;;;;12.77;6.97;;;;;;;;;;5006779;28;20093;-82
2022/08/18 07:13:48;;;;;;;12.25;7.68;;;;;;;;;;5026290;28;20053;-84
2022/08/18 07:16:31;;;;;;;11.52;7.63;;;;;;;;;;5016978;28;20022;-86
2022/08/18 07:19:15;;;;;;;14.38;9.02;;;;;;;;;;5007427;28;20041;-83
2022/08/18 07:21:41;;;;;;;13.10;7.93;;;;;;;;;;5015109;28;20491;-83
2022/08/18 07:24:13;;;;;;;11.48;7.80;;;;;;;;;;5013811;28;20017;-82
2022/08/18 07:26:59;;;;;;;18.30;8.07;;;;;;;;;;5014394;28;20040;-81
2022/08/18 07:29:26;;;;;;;14.70;8.73;;;;;;;;;;5025039;28;20029;-84
2022/08/18 07:31:53;;;;;;;8.82;6.88;;;;;;;;;;5025045;28;20037;-83
2022/08/18 07:34:26;;;;;;;15.32;7.85;;;;;;;;;;5016745;28;20088;-84
2022/08/18 07:36:53;;;;;;;11.23;6.50;;;;;;;;;;5012984;28;20333;-82
2022/08/18 07:39:29;;;;;;;11.15;8.20;;;;;;;;;;5011743;28;20029;-82
2022/08/18 07:42:00;;;;;;;12.05;8.68;;;;;;;;;;5012633;28;20033;-82
2022/08/18 07:44:56;;;;;;;11.63;8.70;;;;;;;;;;5012660;28;20029;-82
2022/08/18 07:47:30;;;;;;;9.43;6.97;;;;;;;;;;5010884;28;20048;-82
2022/08/18 07:49:57;;;;;;;11.50;6.97;;;;;;;;;;5014497;28;20033;-81
2022/08/18 07:52:47;;;;;;;12.02;7.68;;;;;;;;;;4997018;28;20041;-82
2022/08/18 07:55:27;;;;;;;12.73;7.72;;;;;;;;;;5014275;28;20030;-81
2022/08/18 07:58:04;;;;;;;14.43;8.93;;;;;;;;;;5014909;28;20029;-82
2022/08/18 08:00:38;;;;;;;13.55;8.00;;;;;;;;;;5014421;28;20033;-84
2022/08/18 08:03:37;;;;;;;11.55;6.80;;;;;;;;;;5014472;28;20037;-83
2022/08/18 08:06:11;;;;;;;11.63;7.95;;;;;;;;;;5011652;28;20033;-84
2022/08/18 08:08:48;;;;;;;14.70;11.18;;;;;;;;;;5010352;28;20125;-81
2022/08/18 08:11:33;;;;;;;14.85;8.35;;;;;;;;;;5010346;28;20026;-83
2022/08/18 08:14:24;;;;;;;10.38;7.53;;;;;;;;;;5010581;28;20030;-83
2022/08/18 08:16:51;;;;;;;11.15;7.65;;;;;;;;;;5009133;28;20033;-83
2022/08/18 08:19:39;;;;;;;12.52;10.10;;;;;;;;;;5013308;28;20026;-83
2022/08/18 08:22:18;;;;;;;9.48;6.80;;;;;;;;;;5013121;28;20049;-80
2022/08/18 08:24:55;;;;;;;14.90;8.50;;;;;;;;;;5005825;28;20292;-84
2022/08/18 08:27:27;;;;;;;11.68;8.88;;;;;;;;;;5006637;28;20033;-84
2022/08/18 08:29:52;;;;;;;10.98;7.35;;;;;;;;;;5008870;28;20044;-84
2022/08/18 08:32:23;;;;;;;7.25;5.57;;;;;;;;;;5013296;28;20037;-85
2022/08/18 08:34:58;;;;;;;11.23;6.17;;;;;;;;;;5005181;28;20045;-86
2022/08/18 08:37:35;;;;;;;9.75;5.90;;;;;;;;;;5011588;28;20032;-81
2022/08/18 08:40:27;;;;;;;12.70;7.38;;;;;;;;;;5014190;28;20041;-83
2022/08/18 08:43:01;;;;;;;8.23;6.65;;;;;;;;;;5002096;28;20037;-86
2022/08/18 08:45:30;;;;;;;10.00;7.70;;;;;;;;;;5010510;28;20030;-87
2022/08/18 08:48:16;;;;;;;10.38;6.38;;;;;;;;;;5014010;28;20026;-88
2022/08/18 08:51:10;;;;;;;10.93;6.93;;;;;;;;;;5011813;28;20034;-86
2022/08/18 08:53:46;;;;;;;9.55;5.95;;;;;;;;;;5017576;28;20030;-86
2022/08/18 08:56:15;;;;;;;7.97;5.85;;;;;;;;;;5017422;28;20029;-82
2022/08/18 08:58:49;;;;;;;8.75;5.45;;;;;;;;;;5018772;28;20117;-87
2022/08/18 09:01:41;;;;;;;6.57;5.38;;;;;;;;;;5018188;28;20061;-86
2022/08/18 09:04:28;;;;;;;9.68;5.70;;;;;;;;;;5019155;28;20040;-84
2022/08/18 09:07:23;;;;;;;8.20;6.47;;;;;;;;;;5017748;28;20386;-85
2022/08/18 09:09:51;;;;;;;8.55;4.72;;;;;;;;;;5017276;28;20117;-86
2022/08/18 09:12:32;;;;;;;14.65;6.80;;;;;;;;;;5015341;28;20030;-83
2022/08/18 09:15:04;;;;;;;9.15;4.45;;;;;;;;;;5018075;28;20035;-89
2022/08/18 09:18:17;;;;;;;10.57;6.28;;;;;;;;;;5015964;28;20029;-83
2022/08/18 09:20:54;;;;;;;10.45;6.45;;;;;;;;;;4995260;28;20044;-84
2022/08/18 09:23:26;;;;;;;10.82;6.80;;;;;;;;;;4999090;28;20030;-81
2022/08/18 09:25:54;;;;;;;10.95;6.88;;;;;;;;;;5002543;28;20097;-82
2022/08/18 09:28:29;;;;;;;7.93;6.32;;;;;;;;;;4997688;28;20033;-87
2022/08/18 09:31:00;;;;;;;10.23;6.97;;;;;;;;;;4995680;28;20062;-81
2022/08/18 09:33:46;;;;;;;10.40;5.47;;;;;;;;;;4980640;28;20140;-85
2022/08/18 09:36:23;;;;;;;11.65;6.75;;;;;;;;;;4988659;28;20066;-83
2022/08/18 09:41:56;;;;;;;12.35;7.80;;;;;;;;;;5002748;28;20049;-82
2022/08/18 09:44:40;;;;;;;11.13;6.88;;;;;;;;;;4991563;28;20050;-86
2022/08/18 09:47:27;;;;;;;9.10;5.68;;;;;;;;;;4978961;28;20062;-86
2022/08/18 09:50:15;;;;;;;8.30;5.90;;;;;;;;;;4979272;28;20034;-82
2022/08/18 09:52:43;;;;;;;8.40;6.93;;;;;;;;;;5005240;28;20041;-85
2022/08/18 09:55:15;;;;;;;8.18;6.15;;;;;;;;;;5005655;28;20445;-85
2022/08/18 09:57:40;;;;;;;10.43;6.35;;;;;;;;;;5017863;28;20434;-87
2022/08/18 10:00:10;;;;;;;9.52;7.03;;;;;;;;;;5015345;28;20041;-87
2022/08/18 10:02:35;;;;;;;8.98;6.00;;;;;;;;;;5016372;28;20030;-87
2022/08/18 10:05:28;;;;;;;13.73;8.43;;;;;;;;;;5017879;28;20026;-85
2022/08/18 10:08:13;;;;;;;9.02;7.97;;;;;;;;;;5000240;28;20094;-86
2022/08/18 10:10:53;;;;;;;8.13;6.93;;;;;;;;;;5010774;28;20053;-87
2022/08/18 10:13:50;;;;;;;8.23;7.38;;;;;;;;;;5006377;28;20105;-83
2022/08/18 10:16:49;;;;;;;7.10;5.60;;;;;;;;;;5015500;28;20057;-83
2022/08/18 10:19:36;;;;;;;9.55;5.57;;;;;;;;;;4968744;28;20038;-85
2022/08/18 10:22:04;;;;;;;8.60;6.22;;;;;;;;;;4975035;28;20027;-85
2022/08/18 10:24:33;;;;;;;10.55;7.22;;;;;;;;;;4959267;28;20054;-83
2022/08/18 10:27:01;;;;;;;11.82;8.25;;;;;;;;;;4971734;28;20030;-87
2022/08/18 10:29:27;;;;;;;10.23;8.88;;;;;;;;;;4975439;28;20675;-84
2022/08/18 10:31:58;;;;;;;10.20;7.10;;;;;;;;;;4959200;28;20034;-82
2022/08/18 10:34:39;;;;;;;11.00;7.00;;;;;;;;;;4974310;28;20035;-84
2022/08/18 10:37:45;;;;;;;14.45;8.68;;;;;;;;;;4974472;28;20433;-82
2022/08/18 10:40:19;;;;;;;6.93;6.00;;;;;;;;;;4971367;28;20035;-88
2022/08/18 10:43:09;;;;;;;10.85;7.05;;;;;;;;;;4942772;28;20437;-83
2022/08/18 10:45:45;;;;;;;10.77;6.97;;;;;;;;;;4974675;28;20030;-81
2022/08/18 10:48:29;;;;;;;10.23;5.50;;;;;;;;;;4958494;28;20206;-81
2022/08/18 10:51:17;;;;;;;9.80;6.55;;;;;;;;;;4974544;28;20104;-80
2022/08/18 10:53:43;;;;;;;9.40;7.28;;;;;;;;;;4974374;28;20038;-88
2022/08/18 10:56:27;;;;;;;11.10;7.53;;;;;;;;;;4983679;28;20033;-86
2022/08/18 10:59:23;;;;;;;8.77;7.32;;;;;;;;;;5016598;28;20103;-83
2022/08/18 11:02:20;;;;;;;8.27;4.85;;;;;;;;;;5009980;28;20156;-82
2022/08/18 11:04:46;;;;;;;8.60;5.97;;;;;;;;;;5009132;28;20019;-82
2022/08/18 11:07:20;;;;;;;10.70;7.25;;;;;;;;;;5008319;28;20034;-78
2022/08/18 11:09:51;;;;;;;9.38;6.95;;;;;;;;;;5000405;28;20025;-82
2022/08/18 11:12:43;;;;;;;11.68;6.97;;;;;;;;;;5027920;28;20041;-83
2022/08/18 11:15:21;;;;;;;9.45;6.28;;;;;;;;;;4997308;28;20446;-81
2022/08/18 11:18:23;;;;;;;7.18;5.40;;;;;;;;;;5008309;28;20042;-82
2022/08/18 11:20:49;;;;;;;7.32;5.55;;;;;;;;;;5005778;28;20033;-85
2022/08/18 11:23:18;;;;;;;7.60;5.22;;;;;;;;;;5011918;28;20109;-89
2022/08/18 11:25:43;;;;;;;8.02;5.25;;;;;;;;;;5014920;28;20041;-89
2022/08/18 11:28:17;;;;;;;7.95;5.57;;;;;;;;;;5013298;28;20053;-84
2022/08/18 11:30:58;;;;;;;5.53;3.92;;;;;;;;;;4997867;28;20404;-88
2022/08/18 11:33:23;;;;;;;6.85;4.50;;;;;;;;;;5011120;28;20357;-84
2022/08/18 11:39:19;;;;;;;8.07;4.88;;;;;;;;;;5007928;28;20069;-78
2022/08/18 11:42:34;;;;;;;8.05;5.50;;;;;;;;;;4990049;28;20048;-85
2022/08/18 11:45:19;;;;;;;4.85;3.47;;;;;;;;;;4991829;28;20430;-84
2022/08/18 11:48:25;;;;;;;7.25;5.07;;;;;;;;;;4987282;28;20072;-82
2022/08/18 11:51:00;;;;;;;6.38;4.82;;;;;;;;;;5009024;28;20500;-82
2022/08/18 11:53:32;;;;;;;5.07;4.25;;;;;;;;;;5014231;28;20026;-82
2022/08/18 11:56:12;;;;;;;6.90;4.82;;;;;;;;;;5008623;28;20030;-83
2022/08/18 11:58:57;;;;;;;3.83;3.47;;;;;;;;;;4999598;28;20022;-81
2022/08/18 12:01:44;;;;;;;4.22;2.83;;;;;;;;;;5013759;28;20034;-82
2022/08/18 12:04:15;;;;;;;7.28;4.18;;;;;;;;;;5011703;28;20029;-83
2022/08/18 12:06:44;;;;;;;4.75;3.22;;;;;;;;;;5014368;28;20130;-84
2022/08/18 12:09:18;;;;;;;7.05;3.65;;;;;;;;;;5014082;28;20041;-82
2022/08/18 12:12:17;;;;;;;3.15;2.55;;;;;;;;;;5014652;28;20072;-83
2022/08/18 12:14:59;;;;;;;4.13;3.08;;;;;;;;;;5005177;28;20038;-84
2022/08/18 12:17:26;;;;;;;3.72;2.55;;;;;;;;;;5014508;28;20096;-82
2022/08/18 12:19:56;;;;;;;2.42;2.05;;;;;;;;;;5008213;28;20034;-81
2022/08/18 12:22:33;;;;;;;4.97;2.80;;;;;;;;;;5012965;28;20425;-82
2022/08/18 12:28:53;;;;;;;3.00;1.83;;;;;;;;;;5013621;28;20045;-83
2022/08/18 12:31:18;;;;;;;3.13;2.28;;;;;;;;;;4993469;28;20038;-82
2022/08/18 12:33:46;;;;;;;3.85;2.80;;;;;;;;;;4990755;28;20051;-83
2022/08/18 12:36:14;;;;;;;2.45;2.20;;;;;;;;;;4961856;28;20039;-83
2022/08/18 12:38:51;;;;;;;2.92;1.73;;;;;;;;;;4963794;28;20034;-82
2022/08/18 12:41:17;;;;;;;3.45;2.25;;;;;;;;;;4973475;28;20038;-80
2022/08/18 12:47:26;;;;;;;2.78;2.15;;;;;;;;;;4973293;28;20037;-81
2022/08/18 12:50:12;;;;;;;2.60;2.20;;;;;;;;;;4972986;28;20093;-84
2022/08/18 12:52:37;;;;;;;3.25;2.60;;;;;;;;;;4985212;28;20130;-81
2022/08/18 12:55:07;;;;;;;2.65;2.03;;;;;;;;;;4973018;28;20122;-82
2022/08/18 12:57:34;;;;;;;2.55;2.35;;;;;;;;;;4961128;28;20022;-82
2022/08/18 12:59:59;;;;;;;4.32;3.20;;;;;;;;;;4993062;28;20026;-81
2022/08/18 13:02:26;;;;;;;3.42;2.53;;;;;;;;;;4991279;28;20457;-81
2022/08/18 13:04:54;;;;;;;12.25;3.13;;;;;;;;;;4983883;28;20768;-91
2022/08/18 13:07:30;;;;;;;2.60;2.40;;;;;;;;;;4996186;28;20038;-83
2022/08/18 13:09:57;;;;;;;7.72;3.08;;;;;;;;;;5012109;28;20034;-81
2022/08/18 13:12:24;;;;;;;2.78;1.70;;;;;;;;;;5014334;28;20109;-82
2022/08/18 13:14:53;;;;;;;2.22;1.58;;;;;;;;;;5014224;28;20026;-82
2022/08/18 13:17:24;;;;;;;2.65;2.42;;;;;;;;;;5013157;28;20026;-85
2022/08/18 13:19:49;;;;;;;11.05;2.22;;;;;;;;;;5013153;28;20033;-81
2022/08/18 13:22:15;;;;;;;1.95;1.80;;;;;;;;;;5014765;28;20026;-84
2022/08/18 13:24:40;;;;;;;4.10;2.88;;;;;;;;;;5014743;28;20022;-86
2022/08/18 13:27:05;;;;;;;5.00;3.03;;;;;;;;;;5015073;28;20033;-82
2022/08/18 13:29:31;;;;;;;2.72;2.08;;;;;;;;;;5015084;28;20441;-84
2022/08/18 13:31:58;;;;;;;3.05;2.42;;;;;;;;;;5012744;28;20037;-83
2022/08/18 13:34:30;;;;;;;3.45;1.73;;;;;;;;;;5015149;28;20022;-79
2022/08/18 13:36:55;;;;;;;4.25;2.28;;;;;;;;;;5018534;28;20045;-84
2022/08/18 13:39:23;;;;;;;2.78;2.28;;;;;;;;;;5019438;28;20030;-82
2022/08/18 13:41:55;;;;;;;1.60;1.50;;;;;;;;;;5021283;28;20022;-81
2022/08/18 13:44:21;;;;;;;2.90;2.60;;;;;;;;;;5023324;28;20028;-78
2022/08/18 13:46:57;;;;;;;2.97;2.72;;;;;;;;;;5016411;28;20092;-82
2022/08/18 13:49:24;;;;;;;3.63;2.17;;;;;;;;;;5006038;28;20026;-80
2022/08/18 13:51:58;;;;;;;1.50;1.40;;;;;;;;;;5001614;28;20109;-82
2022/08/18 13:54:27;;;;;;;2.70;2.05;;;;;;;;;;5005832;28;20044;-82
2022/08/18 13:56:52;;;;;;;3.30;2.22;;;;;;;;;;5003383;28;20539;-80
2022/08/18 13:59:20;;;;;;;2.70;1.80;;;;;;;;;;5016694;28;20030;-85
2022/08/18 14:01:51;;;;;;;1.65;1.42;;;;;;;;;;5020585;28;20169;-85
2022/08/18 14:04:16;;;;;;;2.95;1.60;;;;;;;;;;5029248;28;20056;-86
2022/08/18 14:06:44;;;;;;;3.05;2.53;;;;;;;;;;5028775;28;20034;-86
2022/08/18 14:09:10;;;;;;;2.45;2.10;;;;;;;;;;5021696;28;20471;-87
2022/08/18 14:11:36;;;;;;;2.40;1.90;;;;;;;;;;5015076;28;20021;-83
2022/08/18 14:14:03;;;;;;;1.95;1.58;;;;;;;;;;5017309;28;20022;-85
2022/08/18 14:16:30;;;;;;;2.88;2.58;;;;;;;;;;5013620;28;20412;-84
2022/08/18 14:27:09;;;;;;;2.03;1.50;;;;;;;;;;5019315;28;20049;-85
2022/08/18 14:29:35;;;;;;;2.47;2.25;;;;;;;;;;5018278;28;20026;-86
2022/08/18 14:32:03;;;;;;;2.28;1.95;;;;;;;;;;5015648;28;20114;-83
2022/08/18 14:34:28;;;;;;;2.80;2.15;;;;;;;;;;5013932;28;20113;-83
2022/08/18 14:36:55;;;;;;;2.25;1.52;;;;;;;;;;5012509;28;20615;-85
2022/08/18 14:39:21;;;;;;;2.80;1.75;;;;;;;;;;5010670;28;20036;-84
2022/08/18 14:41:46;;;;;;;2.30;1.95;;;;;;;;;;5013028;28;20377;-86
2022/08/18 14:44:18;;;;;;;1.45;1.35;;;;;;;;;;5007589;28;20045;-89
2022/08/18 14:46:46;;;;;;;2.50;1.73;;;;;;;;;;5004970;28;20038;-86
2022/08/18 14:49:12;;;;;;;3.53;2.53;;;;;;;;;;5011286;28;20036;-86
2022/08/18 14:51:41;;;;;;;1.83;1.42;;;;;;;;;;5014990;28;20033;-84
2022/08/18 14:54:11;;;;;;;1.63;1.50;;;;;;;;;;5011960;28;20053;-85
2022/08/18 14:56:39;;;;;;;1.67;1.20;;;;;;;;;;4993339;28;20026;-86
2022/08/18 14:59:15;;;;;;;2.95;1.83;;;;;;;;;;5011482;28;20101;-85
2022/08/18 15:01:42;;;;;;;3.83;2.22;;;;;;;;;;5011540;28;20096;-87
2022/08/18 15:04:09;;;;;;;2.83;1.98;;;;;;;;;;5015192;28;20349;-83
2022/08/18 15:06:34;;;;;;;2.13;1.48;;;;;;;;;;4990529;28;20037;-80
2022/08/18 15:09:00;;;;;;;1.98;1.65;;;;;;;;;;5010790;28;20029;-86
2022/08/18 15:11:25;;;;;;;1.00;0.93;;;;;;;;;;5013178;28;20025;-85
2022/08/18 15:13:53;;;;;;;3.13;1.92;;;;;;;;;;5014068;28;20046;-82
2022/08/18 15:16:20;;;;;;;1.33;1.23;;;;;;;;;;5010997;28;20029;-83
2022/08/18 15:18:46;;;;;;;2.25;1.55;;;;;;;;;;5007894;28;20025;-81
2022/08/18 15:26:41;;;;;;;1.45;1.30;;;;;;;;;;5014978;28;20103;-85
2022/08/18 15:29:09;;;;;;;0.90;0.90;;;;;;;;;;5013402;28;20030;-86
2022/08/18 15:31:38;;;;;;;1.20;0.70;;;;;;;;;;5014899;28;20046;-83
2022/08/18 15:34:04;;;;;;;1.00;0.90;;;;;;;;;;5011364;28;20018;-85
2022/08/18 15:36:32;;;;;;;2.08;1.70;;;;;;;;;;5014250;28;20030;-85
2022/08/18 15:38:58;;;;;;;1.48;1.08;;;;;;;;;;5010714;28;20112;-85
2022/08/18 15:41:47;;;;;;;2.53;1.85;;;;;;;;;;5015072;28;20061;-84
2022/08/18 15:44:15;;;;;;;1.35;1.25;;;;;;;;;;5012764;28;20491;-86
2022/08/18 15:46:43;;;;;;;1.67;1.08;;;;;;;;;;4997559;28;20529;-89
2022/08/18 15:49:11;;;;;;;2.25;1.35;;;;;;;;;;4999879;28;20026;-86